Time;durP1;ratioP1;P1;durP2;ratioP2;P2;SDS_P1;SDS_P2;PMS_P1;PMS_P2;Temp;Humidity;BMP_temperature;BMP_pressure;BME280_temperature;BME280_humidity;BME280_pressure;Samples;Min_cycle;Max_cycle;Signal;HPM_P1;HPM_P2
2022/08/06 00:02:20;;;;;;;0.20;0.20;;;14.50;99.90;;;;;;5071732;28;20044;-85
2022/08/06 00:04:47;;;;;;;0.20;0.20;;;14.40;99.90;;;;;;5072152;28;20086;-84
2022/08/06 00:07:13;;;;;;;0.20;0.20;;;14.40;99.90;;;;;;5082430;28;20484;-85
2022/08/06 00:09:38;;;;;;;0.20;0.20;;;14.40;99.90;;;;;;5079458;28;20040;-84
2022/08/06 00:12:05;;;;;;;0.20;0.20;;;14.40;99.90;;;;;;5059490;28;20045;-84
2022/08/06 00:14:32;;;;;;;0.20;0.20;;;14.40;99.90;;;;;;5063972;28;20122;-85
2022/08/06 00:16:58;;;;;;;0.20;0.20;;;14.30;99.90;;;;;;5086360;28;20028;-85
2022/08/06 00:19:24;;;;;;;0.20;0.20;;;14.30;99.90;;;;;;5069479;28;20055;-85
2022/08/06 00:21:50;;;;;;;0.10;0.10;;;14.30;99.90;;;;;;5075198;28;20087;-85
2022/08/06 00:24:16;;;;;;;0.20;0.20;;;14.30;99.90;;;;;;5059471;28;20123;-84
2022/08/06 00:26:42;;;;;;;0.20;0.20;;;14.50;99.90;;;;;;5071326;28;20459;-85
2022/08/06 00:29:08;;;;;;;0.20;0.20;;;14.20;99.90;;;;;;5065438;28;20040;-85
2022/08/06 00:31:33;;;;;;;0.20;0.20;;;15.10;99.90;;;;;;5061679;28;20055;-85
2022/08/06 00:34:03;;;;;;;0.20;0.20;;;14.30;99.90;;;;;;5067584;28;20036;-84
2022/08/06 00:36:31;;;;;;;0.20;0.20;;;14.30;99.90;;;;;;5065146;28;20083;-84
2022/08/06 00:39:03;;;;;;;0.20;0.20;;;14.20;99.90;;;;;;5087566;28;20123;-84
2022/08/06 00:41:30;;;;;;;0.20;0.20;;;14.20;99.90;;;;;;5069544;28;20049;-85
2022/08/06 00:43:56;;;;;;;0.20;0.20;;;14.20;99.90;;;;;;5054460;28;20068;-85
2022/08/06 00:46:23;;;;;;;0.20;0.20;;;14.20;99.90;;;;;;5075016;28;20049;-85
2022/08/06 00:48:52;;;;;;;0.20;0.20;;;14.20;99.90;;;;;;5079289;28;20040;-85
2022/08/06 00:51:18;;;;;;;0.20;0.20;;;14.10;99.90;;;;;;5075736;28;20500;-85
2022/08/06 00:53:44;;;;;;;0.20;0.20;;;14.10;99.90;;;;;;5065211;28;20146;-85
2022/08/06 00:56:09;;;;;;;0.20;0.20;;;14.10;99.90;;;;;;5067781;28;20051;-85
2022/08/06 00:58:36;;;;;;;0.13;0.13;;;14.10;99.90;;;;;;5073813;28;20045;-84
2022/08/06 01:01:01;;;;;;;0.13;0.13;;;14.10;99.90;;;;;;5053776;28;20049;-85
2022/08/06 01:03:27;;;;;;;0.20;0.20;;;14.10;99.90;;;;;;5068940;28;20738;-85
2022/08/06 01:05:53;;;;;;;0.20;0.20;;;14.40;99.90;;;;;;5078927;28;20024;-85
2022/08/06 01:08:18;;;;;;;0.20;0.20;;;14.10;99.90;;;;;;5072499;28;20408;-85
2022/08/06 01:10:44;;;;;;;0.20;0.20;;;14.10;99.90;;;;;;5082970;28;20080;-84
2022/08/06 01:13:10;;;;;;;0.10;0.10;;;14.00;99.90;;;;;;5084337;28;20505;-85
2022/08/06 01:15:39;;;;;;;0.10;0.10;;;14.00;99.90;;;;;;5070586;28;20044;-84
2022/08/06 01:18:14;;;;;;;0.20;0.20;;;14.00;99.90;;;;;;5072515;28;20608;-84
2022/08/06 01:21:04;;;;;;;0.20;0.20;;;14.00;99.90;;;;;;5060043;28;20056;-84
2022/08/06 01:24:07;;;;;;;0.20;0.20;;;14.00;99.90;;;;;;5058127;28;20088;-84
2022/08/06 01:26:40;;;;;;;0.17;0.17;;;14.00;99.90;;;;;;5057892;28;20103;-85
2022/08/06 01:29:16;;;;;;;0.20;0.20;;;14.00;99.90;;;;;;5063477;28;20079;-84
2022/08/06 01:31:59;;;;;;;0.20;0.20;;;13.90;99.90;;;;;;5075384;28;20056;-84
2022/08/06 01:34:36;;;;;;;0.13;0.13;;;13.90;99.90;;;;;;5055337;28;20044;-84
2022/08/06 01:37:26;;;;;;;0.10;0.10;;;14.00;99.90;;;;;;5056461;28;20049;-84
2022/08/06 01:39:58;;;;;;;0.17;0.17;;;13.90;99.90;;;;;;5061114;28;20045;-85
2022/08/06 01:42:26;;;;;;;0.20;0.20;;;13.90;99.90;;;;;;5079599;28;20484;-85
2022/08/06 01:44:56;;;;;;;0.10;0.10;;;13.90;99.90;;;;;;5068812;28;20418;-85
2022/08/06 01:47:26;;;;;;;0.20;0.20;;;13.90;99.90;;;;;;5070525;28;20549;-84
2022/08/06 01:49:55;;;;;;;0.20;0.20;;;13.80;99.90;;;;;;5064871;28;20040;-84
2022/08/06 01:52:27;;;;;;;0.20;0.20;;;13.90;99.90;;;;;;5066749;28;20052;-85
2022/08/06 01:54:58;;;;;;;0.20;0.20;;;13.90;99.90;;;;;;5069809;28;20049;-85
2022/08/06 01:57:26;;;;;;;0.20;0.20;;;13.90;99.90;;;;;;5067880;28;20094;-85
2022/08/06 01:59:54;;;;;;;0.20;0.20;;;13.90;99.90;;;;;;5064586;28;20046;-85
2022/08/06 02:02:23;;;;;;;0.20;0.20;;;13.80;99.90;;;;;;5069852;28;20056;-84
2022/08/06 02:04:53;;;;;;;0.22;0.22;;;13.80;99.90;;;;;;5051651;28;20045;-85
2022/08/06 02:07:23;;;;;;;0.20;0.20;;;13.80;99.90;;;;;;5065703;28;20060;-84
2022/08/06 02:09:51;;;;;;;0.20;0.20;;;13.80;99.90;;;;;;5063062;28;20045;-84
2022/08/06 02:12:20;;;;;;;0.20;0.20;;;13.80;99.90;;;;;;5072878;28;20044;-84
2022/08/06 02:14:55;;;;;;;0.20;0.20;;;13.80;99.90;;;;;;5074274;28;20115;-85
2022/08/06 02:17:27;;;;;;;0.10;0.10;;;13.80;99.90;;;;;;5056468;28;20088;-84
2022/08/06 02:19:55;;;;;;;0.20;0.20;;;13.70;99.90;;;;;;5062130;28;20041;-85
2022/08/06 02:22:22;;;;;;;0.20;0.20;;;13.80;99.90;;;;;;5072658;28;20048;-85
2022/08/06 02:24:50;;;;;;;0.20;0.20;;;13.90;99.90;;;;;;5071233;28;20059;-85
2022/08/06 02:27:17;;;;;;;0.20;0.20;;;13.80;99.90;;;;;;5058318;28;20041;-82
2022/08/06 02:29:45;;;;;;;0.20;0.20;;;13.70;99.90;;;;;;5074709;28;20044;-84
2022/08/06 02:32:13;;;;;;;0.20;0.20;;;13.80;99.90;;;;;;5072336;28;20052;-83
2022/08/06 02:34:39;;;;;;;0.20;0.20;;;13.90;99.90;;;;;;5056513;28;20470;-84
2022/08/06 02:37:18;;;;;;;0.10;0.10;;;13.70;99.90;;;;;;5054811;28;20698;-84
2022/08/06 02:39:55;;;;;;;0.20;0.20;;;13.70;99.90;;;;;;5068745;28;20044;-84
2022/08/06 02:42:39;;;;;;;0.20;0.20;;;13.70;99.90;;;;;;5079002;28;20052;-84
2022/08/06 02:45:09;;;;;;;0.20;0.20;;;13.60;99.90;;;;;;5057128;28;20060;-84
2022/08/06 02:47:39;;;;;;;0.20;0.20;;;13.60;99.90;;;;;;5066722;28;20052;-84
2022/08/06 02:50:06;;;;;;;0.20;0.20;;;13.60;99.90;;;;;;5069054;28;20098;-84
2022/08/06 02:52:55;;;;;;;0.20;0.20;;;13.60;99.90;;;;;;5066107;28;20082;-83
2022/08/06 02:55:26;;;;;;;0.20;0.20;;;13.50;99.90;;;;;;5056415;28;20408;-84
2022/08/06 02:57:55;;;;;;;0.20;0.20;;;13.50;99.90;;;;;;5055910;28;20040;-83
2022/08/06 03:00:22;;;;;;;0.20;0.20;;;13.50;99.90;;;;;;5067869;28;20068;-84
2022/08/06 03:02:51;;;;;;;0.20;0.20;;;13.50;99.90;;;;;;5070753;28;20077;-84
2022/08/06 03:05:19;;;;;;;0.20;0.20;;;13.50;99.90;;;;;;5083791;28;20480;-85
2022/08/06 03:07:48;;;;;;;0.20;0.20;;;13.50;99.90;;;;;;5054349;28;20510;-84
2022/08/06 03:10:17;;;;;;;0.10;0.10;;;13.50;99.90;;;;;;5073602;28;20047;-85
2022/08/06 03:12:43;;;;;;;0.20;0.20;;;13.40;99.90;;;;;;5104445;28;20055;-84
2022/08/06 03:15:10;;;;;;;0.20;0.20;;;13.40;99.90;;;;;;5089670;28;20036;-85
2022/08/06 03:17:39;;;;;;;0.17;0.17;;;13.40;99.90;;;;;;5087391;28;20060;-84
2022/08/06 03:20:06;;;;;;;0.20;0.20;;;13.40;99.90;;;;;;5079200;28;20086;-84
2022/08/06 03:22:34;;;;;;;0.13;0.13;;;13.40;99.90;;;;;;5075665;28;20032;-83
2022/08/06 03:25:01;;;;;;;0.20;0.20;;;13.50;99.90;;;;;;5079935;28;20865;-84
2022/08/06 03:27:28;;;;;;;0.28;0.28;;;13.40;99.90;;;;;;5067440;28;20041;-84
2022/08/06 03:29:55;;;;;;;0.20;0.20;;;13.40;99.90;;;;;;5075858;28;20532;-84
2022/08/06 03:32:21;;;;;;;0.20;0.20;;;13.40;99.90;;;;;;5080774;28;20052;-85
2022/08/06 03:34:48;;;;;;;0.20;0.20;;;13.40;99.90;;;;;;5075823;28;20147;-84
2022/08/06 03:37:17;;;;;;;0.20;0.20;;;13.50;99.90;;;;;;5065414;28;20166;-84
2022/08/06 03:39:45;;;;;;;0.10;0.10;;;13.50;99.90;;;;;;5081476;28;20041;-85
2022/08/06 03:42:10;;;;;;;0.20;0.20;;;13.40;99.90;;;;;;5058759;28;20033;-84
2022/08/06 03:44:36;;;;;;;0.10;0.10;;;13.50;99.90;;;;;;5065566;28;20045;-84
2022/08/06 03:47:11;;;;;;;0.20;0.20;;;13.40;99.90;;;;;;5075942;28;20044;-84
2022/08/06 03:49:45;;;;;;;0.20;0.20;;;13.50;99.90;;;;;;5075711;28;20127;-84
2022/08/06 03:52:20;;;;;;;0.20;0.20;;;13.50;99.90;;;;;;5065195;28;20093;-84
2022/08/06 03:54:49;;;;;;;0.20;0.20;;;13.40;99.90;;;;;;5067980;28;20323;-84
2022/08/06 03:57:19;;;;;;;0.15;0.15;;;13.40;99.90;;;;;;5069027;28;20040;-84
2022/08/06 03:59:48;;;;;;;0.20;0.20;;;13.50;99.90;;;;;;5080395;28;20526;-85
2022/08/06 04:02:15;;;;;;;0.10;0.10;;;13.50;99.90;;;;;;5068805;28;20045;-84
2022/08/06 04:04:42;;;;;;;0.20;0.20;;;13.40;99.90;;;;;;5059697;28;20469;-84
2022/08/06 04:07:09;;;;;;;0.20;0.20;;;13.40;99.90;;;;;;5065994;28;20431;-84
2022/08/06 04:09:35;;;;;;;0.20;0.20;;;13.40;99.90;;;;;;5073063;28;20618;-85
2022/08/06 04:12:03;;;;;;;0.20;0.20;;;13.30;99.90;;;;;;5064631;28;20037;-84
2022/08/06 04:14:29;;;;;;;0.10;0.10;;;13.20;99.90;;;;;;5073155;28;20087;-84
2022/08/06 04:16:55;;;;;;;0.20;0.20;;;13.20;99.90;;;;;;5075291;28;20040;-84
2022/08/06 04:19:22;;;;;;;0.20;0.20;;;13.10;99.90;;;;;;5078656;28;20076;-84
2022/08/06 04:21:48;;;;;;;0.20;0.20;;;13.10;99.90;;;;;;5072182;28;20584;-84
2022/08/06 04:24:14;;;;;;;0.20;0.20;;;13.20;99.90;;;;;;5071269;28;20123;-84
2022/08/06 04:26:43;;;;;;;0.10;0.10;;;13.00;99.90;;;;;;5069494;28;20431;-85
2022/08/06 04:29:12;;;;;;;0.20;0.20;;;13.00;99.90;;;;;;5075070;28;20131;-85
2022/08/06 04:31:39;;;;;;;0.10;0.10;;;13.10;99.90;;;;;;5065266;28;20068;-85
2022/08/06 04:34:05;;;;;;;0.15;0.15;;;13.10;99.90;;;;;;5068115;28;20883;-85
2022/08/06 04:36:32;;;;;;;0.20;0.20;;;13.20;99.90;;;;;;5068718;28;20036;-84
2022/08/06 04:38:58;;;;;;;0.20;0.20;;;13.20;99.90;;;;;;5059360;28;20148;-84
2022/08/06 04:41:24;;;;;;;0.20;0.20;;;13.20;99.90;;;;;;5074213;28;20139;-84
2022/08/06 04:43:50;;;;;;;0.20;0.20;;;13.40;99.90;;;;;;5070187;28;20128;-85
2022/08/06 04:46:16;;;;;;;0.20;0.20;;;13.40;99.90;;;;;;5062394;28;20111;-83
2022/08/06 04:48:42;;;;;;;0.20;0.20;;;13.50;99.90;;;;;;5064252;28;20484;-83
2022/08/06 04:51:07;;;;;;;0.20;0.20;;;13.60;99.90;;;;;;5057853;28;20033;-83
2022/08/06 04:53:39;;;;;;;0.10;0.10;;;13.60;99.90;;;;;;5069984;28;20507;-83
2022/08/06 04:56:05;;;;;;;0.10;0.10;;;13.60;99.90;;;;;;5066820;28;20036;-83
2022/08/06 04:58:31;;;;;;;0.20;0.20;;;13.80;99.90;;;;;;5069957;28;20102;-83
2022/08/06 05:00:57;;;;;;;0.20;0.20;;;13.80;99.90;;;;;;5065409;28;20049;-84
2022/08/06 05:03:23;;;;;;;0.17;0.17;;;13.90;99.90;;;;;;5067881;28;20032;-84
2022/08/06 05:06:11;;;;;;;0.20;0.20;;;13.90;99.90;;;;;;5053197;28;20844;-84
2022/08/06 05:08:41;;;;;;;0.20;0.20;;;13.90;99.90;;;;;;5070608;28;20043;-84
2022/08/06 05:11:23;;;;;;;0.10;0.10;;;14.00;99.90;;;;;;5074589;28;20108;-84
2022/08/06 05:13:54;;;;;;;0.20;0.20;;;14.00;99.90;;;;;;5082241;28;20090;-84
2022/08/06 05:16:21;;;;;;;0.20;0.20;;;14.00;99.90;;;;;;5081004;28;20037;-82
2022/08/06 05:19:03;;;;;;;0.20;0.20;;;14.00;99.90;;;;;;5073179;28;20043;-83
2022/08/06 05:21:37;;;;;;;0.20;0.20;;;14.10;99.90;;;;;;5088479;28;20563;-84
2022/08/06 05:24:03;;;;;;;0.10;0.10;;;14.10;99.90;;;;;;5070463;28;20051;-83
2022/08/06 05:26:29;;;;;;;0.15;0.15;;;14.10;99.90;;;;;;5068504;28;20029;-83
2022/08/06 05:28:55;;;;;;;0.10;0.10;;;14.10;99.90;;;;;;5063343;28;20052;-85
2022/08/06 05:31:47;;;;;;;0.10;0.10;;;14.10;99.90;;;;;;5081341;28;20131;-84
2022/08/06 05:34:13;;;;;;;0.20;0.20;;;14.10;99.90;;;;;;5055382;28;20052;-84
2022/08/06 05:36:39;;;;;;;0.10;0.10;;;14.10;99.90;;;;;;5067497;28;20392;-83
2022/08/06 05:39:06;;;;;;;0.20;0.20;;;14.20;99.90;;;;;;5061142;28;20110;-84
2022/08/06 05:41:34;;;;;;;0.20;0.20;;;14.20;99.90;;;;;;5077260;28;20131;-83
2022/08/06 05:44:01;;;;;;;0.10;0.10;;;14.20;99.90;;;;;;5080681;28;20079;-84
2022/08/06 05:46:32;;;;;;;0.20;0.20;;;14.30;99.90;;;;;;5064610;28;20056;-84
2022/08/06 05:49:07;;;;;;;0.20;0.20;;;14.40;99.90;;;;;;5059570;28;20033;-85
2022/08/06 05:51:49;;;;;;;0.20;0.20;;;14.50;99.90;;;;;;5071081;28;20074;-85
2022/08/06 05:54:21;;;;;;;0.10;0.10;;;14.60;99.90;;;;;;5084066;28;20102;-84
2022/08/06 05:56:51;;;;;;;0.20;0.20;;;14.70;99.90;;;;;;5078304;28;20115;-83
2022/08/06 05:59:26;;;;;;;0.20;0.20;;;14.80;99.90;;;;;;5071388;28;20079;-84
2022/08/06 06:01:53;;;;;;;0.20;0.20;;;14.70;99.90;;;;;;5059138;28;20044;-84
2022/08/06 06:04:19;;;;;;;0.20;0.20;;;14.90;99.90;;;;;;5063395;28;20040;-84
2022/08/06 06:06:45;;;;;;;0.20;0.20;;;14.80;99.90;;;;;;5063926;28;20033;-84
2022/08/06 06:09:13;;;;;;;0.20;0.20;;;14.80;99.90;;;;;;5074787;28;20495;-85
2022/08/06 06:11:39;;;;;;;0.10;0.10;;;14.90;99.90;;;;;;5077317;28;20137;-82
2022/08/06 06:14:21;;;;;;;0.20;0.20;;;14.90;99.90;;;;;;5080116;28;20106;-83
2022/08/06 06:17:07;;;;;;;0.10;0.10;;;15.00;99.90;;;;;;5062973;28;20044;-84
2022/08/06 06:20:08;;;;;;;0.20;0.20;;;15.00;99.90;;;;;;5060033;28;20393;-84
2022/08/06 06:22:46;;;;;;;0.10;0.10;;;15.00;99.90;;;;;;5063769;28;20048;-84
2022/08/06 06:25:20;;;;;;;0.20;0.20;;;14.90;99.90;;;;;;5048155;28;20319;-84
2022/08/06 06:27:48;;;;;;;0.15;0.15;;;14.90;99.90;;;;;;5073059;28;20048;-84
2022/08/06 06:30:20;;;;;;;0.20;0.20;;;14.90;99.90;;;;;;5058342;28;20150;-83
2022/08/06 06:33:04;;;;;;;0.20;0.20;;;14.90;99.90;;;;;;5070817;28;20033;-84
2022/08/06 06:35:41;;;;;;;0.17;0.17;;;14.90;99.90;;;;;;5076093;28;20110;-83
2022/08/06 06:38:32;;;;;;;0.20;0.20;;;14.90;99.90;;;;;;5076789;28;20593;-81
2022/08/06 06:41:10;;;;;;;0.10;0.10;;;15.00;99.90;;;;;;5075675;28;20077;-80
2022/08/06 06:44:12;;;;;;;0.20;0.20;;;15.10;99.90;;;;;;5058306;28;20152;-80
2022/08/06 06:46:47;;;;;;;;;;;15.20;99.90;;;;;;5048112;28;20052;-81
2022/08/06 06:49:35;;;;;;;0.20;0.20;;;15.30;99.90;;;;;;5076453;28;19921;-81
2022/08/06 06:52:22;;;;;;;0.10;0.10;;;15.40;99.90;;;;;;5054291;28;20098;-80
2022/08/06 06:55:02;;;;;;;0.20;0.20;;;15.50;99.90;;;;;;5080917;28;20060;-82
2022/08/06 06:57:38;;;;;;;0.15;0.15;;;15.60;99.90;;;;;;5047213;28;20044;-80
2022/08/06 07:00:05;;;;;;;0.20;0.20;;;15.70;99.90;;;;;;5067829;28;20059;-82
2022/08/06 07:02:35;;;;;;;0.13;0.13;;;15.80;99.90;;;;;;5067086;28;20403;-82
2022/08/06 07:05:03;;;;;;;0.30;0.30;;;15.90;99.90;;;;;;5070218;28;20045;-82
2022/08/06 07:07:34;;;;;;;0.20;0.20;;;15.90;99.90;;;;;;5071640;28;20048;-81
2022/08/06 07:10:03;;;;;;;3.50;0.50;;;16.00;99.90;;;;;;5075986;28;20079;-82
2022/08/06 07:12:32;;;;;;;0.20;0.20;;;16.10;99.90;;;;;;5071957;28;20080;-81
2022/08/06 07:15:00;;;;;;;0.20;0.20;;;16.20;99.90;;;;;;5073677;28;20044;-81
2022/08/06 07:17:27;;;;;;;0.22;0.22;;;16.30;99.90;;;;;;5073252;28;20046;-81
2022/08/06 07:19:55;;;;;;;0.20;0.20;;;16.40;99.90;;;;;;5071576;28;20508;-82
2022/08/06 07:22:23;;;;;;;0.15;0.15;;;16.40;99.90;;;;;;5065932;28;20119;-81
2022/08/06 07:24:51;;;;;;;0.10;0.10;;;16.40;99.90;;;;;;5056213;28;20040;-82
2022/08/06 07:27:17;;;;;;;0.20;0.20;;;16.60;99.90;;;;;;5067367;28;20043;-80
2022/08/06 07:29:44;;;;;;;0.13;0.13;;;16.60;99.90;;;;;;5069098;28;20096;-80
2022/08/06 07:32:11;;;;;;;0.20;0.20;;;16.70;99.90;;;;;;5062832;28;20136;-80
2022/08/06 07:34:38;;;;;;;0.20;0.20;;;16.80;99.90;;;;;;5066139;28;20106;-82
2022/08/06 07:37:05;;;;;;;0.20;0.20;;;16.90;99.90;;;;;;5063591;28;20062;-81
2022/08/06 07:39:36;;;;;;;0.15;0.15;;;17.10;99.90;;;;;;5074349;28;20045;-81
2022/08/06 07:42:07;;;;;;;0.10;0.10;;;17.10;99.90;;;;;;5067884;28;20041;-82
2022/08/06 07:44:39;;;;;;;0.10;0.10;;;17.10;99.90;;;;;;5083287;28;20039;-82
2022/08/06 07:47:06;;;;;;;0.20;0.20;;;17.10;99.90;;;;;;5079139;28;20044;-83
2022/08/06 07:49:44;;;;;;;0.20;0.20;;;17.10;99.90;;;;;;5059357;28;20060;-82
2022/08/06 07:52:14;;;;;;;0.20;0.20;;;17.20;99.90;;;;;;5073108;28;20040;-82
2022/08/06 07:54:41;;;;;;;0.20;0.20;;;17.20;99.90;;;;;;5082328;28;20047;-82
2022/08/06 07:57:07;;;;;;;0.20;0.20;;;17.30;99.90;;;;;;5068949;28;20539;-84
2022/08/06 07:59:33;;;;;;;0.20;0.20;;;17.30;99.90;;;;;;5062984;28;20049;-81
2022/08/06 08:02:04;;;;;;;0.20;0.20;;;17.00;99.90;;;;;;5067492;28;20056;-80
2022/08/06 08:07:15;;;;;;;0.20;0.20;;;17.40;99.90;;;;;;5065958;28;20055;-81
2022/08/06 08:09:42;;;;;;;0.20;0.20;;;17.50;99.90;;;;;;5053962;28;20056;-80
2022/08/06 08:12:11;;;;;;;0.20;0.20;;;17.50;99.90;;;;;;5059027;28;20040;-79
2022/08/06 08:14:39;;;;;;;0.20;0.20;;;17.50;99.90;;;;;;5062619;28;20059;-80
2022/08/06 08:17:04;;;;;;;0.20;0.20;;;17.60;99.90;;;;;;5067230;28;20512;-80
2022/08/06 08:19:32;;;;;;;0.20;0.20;;;17.70;99.90;;;;;;5062277;28;20139;-83
2022/08/06 08:22:00;;;;;;;0.22;0.22;;;17.80;99.90;;;;;;5060288;28;20044;-83
2022/08/06 08:24:27;;;;;;;0.20;0.20;;;17.80;99.90;;;;;;5066609;28;20055;-82
2022/08/06 08:26:53;;;;;;;0.20;0.20;;;17.90;99.90;;;;;;5064440;28;20029;-81
2022/08/06 08:29:19;;;;;;;0.10;0.10;;;18.00;99.90;;;;;;5066555;28;20067;-80
2022/08/06 08:31:45;;;;;;;0.20;0.20;;;18.00;99.90;;;;;;5056036;28;20048;-80
2022/08/06 08:34:14;;;;;;;0.20;0.20;;;18.00;99.90;;;;;;5066829;28;20044;-80
2022/08/06 08:36:40;;;;;;;0.20;0.20;;;18.10;99.90;;;;;;5075224;28;20041;-81
2022/08/06 08:39:06;;;;;;;0.17;0.17;;;18.10;99.90;;;;;;5053367;28;20395;-83
2022/08/06 08:41:39;;;;;;;0.20;0.20;;;18.20;99.90;;;;;;5052029;28;20045;-82
2022/08/06 08:44:07;;;;;;;0.20;0.20;;;18.10;99.90;;;;;;5080388;28;20636;-81
2022/08/06 08:46:40;;;;;;;0.20;0.20;;;18.20;99.90;;;;;;5060637;28;20059;-80
2022/08/06 08:49:13;;;;;;;0.10;0.10;;;18.20;99.90;;;;;;5063294;28;20539;-81
2022/08/06 08:51:40;;;;;;;0.13;0.13;;;18.20;99.90;;;;;;5071889;28;20138;-81
2022/08/06 08:54:09;;;;;;;0.20;0.20;;;18.20;99.90;;;;;;5066393;28;20120;-83
2022/08/06 08:56:36;;;;;;;0.20;0.20;;;18.10;99.90;;;;;;5056569;28;20098;-81
2022/08/06 08:59:04;;;;;;;0.20;0.20;;;18.20;99.90;;;;;;5082616;28;20051;-81
2022/08/06 09:01:31;;;;;;;0.20;0.20;;;18.20;99.90;;;;;;5059348;28;20089;-80
2022/08/06 09:03:57;;;;;;;0.10;0.10;;;18.20;99.90;;;;;;5069371;28;20104;-77
2022/08/06 09:06:27;;;;;;;0.20;0.20;;;18.10;99.90;;;;;;5084386;28;20503;-79
2022/08/06 09:08:52;;;;;;;0.13;0.13;;;18.10;99.90;;;;;;5064034;28;20048;-80
2022/08/06 09:11:18;;;;;;;0.10;0.10;;;18.00;99.90;;;;;;5060847;28;20040;-81
2022/08/06 09:13:45;;;;;;;0.13;0.13;;;18.10;99.90;;;;;;5081277;28;20052;-81
2022/08/06 09:16:11;;;;;;;0.10;0.10;;;18.00;99.90;;;;;;5067756;28;20067;-80
2022/08/06 09:18:36;;;;;;;0.20;0.20;;;18.00;99.90;;;;;;5052452;28;20040;-79
2022/08/06 09:21:03;;;;;;;0.20;0.20;;;17.90;99.90;;;;;;5058815;28;20562;-80
2022/08/06 09:23:29;;;;;;;0.10;0.10;;;18.00;99.90;;;;;;5057081;28;20502;-80
2022/08/06 09:25:55;;;;;;;0.20;0.20;;;18.00;99.90;;;;;;5068817;28;20113;-79
2022/08/06 09:28:30;;;;;;;0.10;0.10;;;18.00;99.90;;;;;;5060849;28;20405;-79
2022/08/06 09:31:03;;;;;;;0.15;0.15;;;18.00;99.90;;;;;;5057026;28;20036;-77
2022/08/06 09:33:31;;;;;;;0.20;0.20;;;18.10;99.90;;;;;;5053239;28;20079;-79
2022/08/06 09:36:02;;;;;;;0.10;0.10;;;18.20;99.90;;;;;;5059572;28;20089;-79
2022/08/06 09:38:29;;;;;;;0.15;0.15;;;18.20;99.90;;;;;;5082451;28;20040;-78
2022/08/06 09:41:06;;;;;;;0.20;0.20;;;18.40;99.90;;;;;;5058233;28;20442;-78
2022/08/06 09:43:32;;;;;;;0.20;0.20;;;18.50;99.90;;;;;;5070715;28;20086;-79
2022/08/06 09:45:58;;;;;;;0.20;0.20;;;18.50;99.90;;;;;;5070761;28;20401;-78
2022/08/06 09:48:24;;;;;;;0.20;0.20;;;18.50;99.90;;;;;;5075076;28;20056;-80
2022/08/06 09:50:49;;;;;;;0.17;0.17;;;18.50;99.90;;;;;;5081162;28;20036;-79
2022/08/06 09:53:17;;;;;;;0.20;0.20;;;18.50;99.90;;;;;;5088600;28;20048;-79
2022/08/06 09:55:43;;;;;;;0.20;0.20;;;18.60;99.90;;;;;;5066475;28;20443;-79
2022/08/06 09:58:09;;;;;;;0.10;0.10;;;18.70;99.90;;;;;;5075612;28;20041;-78
2022/08/06 10:00:36;;;;;;;0.17;0.17;;;18.70;99.90;;;;;;5083754;28;20135;-82
2022/08/06 10:03:04;;;;;;;0.20;0.20;;;18.90;99.90;;;;;;5062662;28;20512;-82
2022/08/06 10:05:31;;;;;;;0.20;0.20;;;18.90;99.90;;;;;;5058746;28;20053;-79
2022/08/06 10:08:10;;;;;;;0.20;0.20;;;19.00;99.70;;;;;;5057131;28;20591;-79
2022/08/06 10:10:51;;;;;;;0.20;0.20;;;19.00;99.70;;;;;;5065066;28;20040;-79
2022/08/06 10:13:26;;;;;;;0.20;0.20;;;19.10;99.20;;;;;;5059979;28;20550;-81
2022/08/06 10:15:54;;;;;;;0.20;0.20;;;19.10;98.80;;;;;;5064615;28;20044;-79
2022/08/06 10:18:36;;;;;;;0.10;0.10;;;19.00;98.90;;;;;;5054181;28;20041;-79
2022/08/06 10:21:08;;;;;;;0.20;0.20;;;19.10;98.50;;;;;;5060883;28;20049;-80
2022/08/06 10:23:38;;;;;;;0.20;0.20;;;19.10;98.40;;;;;;5067071;28;20044;-80
2022/08/06 10:26:06;;;;;;;0.20;0.20;;;19.10;97.90;;;;;;5067892;28;20168;-80
2022/08/06 10:28:34;;;;;;;0.10;0.10;;;19.00;97.50;;;;;;5065263;28;20497;-78
2022/08/06 10:31:06;;;;;;;0.10;0.10;;;19.00;97.70;;;;;;5066702;28;20045;-79
2022/08/06 10:33:55;;;;;;;0.20;0.20;;;19.10;97.40;;;;;;5059269;28;20041;-78
2022/08/06 10:36:27;;;;;;;0.10;0.10;;;19.20;97.70;;;;;;5054440;28;20068;-78
2022/08/06 10:38:55;;;;;;;0.20;0.20;;;19.30;97.30;;;;;;5079093;28;20079;-79
2022/08/06 10:41:21;;;;;;;0.20;0.20;;;19.30;97.40;;;;;;5080490;28;20120;-79
2022/08/06 10:43:49;;;;;;;0.13;0.13;;;19.40;96.60;;;;;;5075480;28;20440;-80
2022/08/06 10:46:17;;;;;;;0.20;0.20;;;19.40;96.50;;;;;;5078421;28;20047;-80
2022/08/06 10:48:45;;;;;;;0.10;0.10;;;19.50;96.60;;;;;;5063015;28;20097;-80
2022/08/06 10:51:12;;;;;;;0.20;0.20;;;19.50;96.80;;;;;;5069851;28;20400;-80
2022/08/06 10:53:40;;;;;;;0.20;0.20;;;19.60;96.50;;;;;;5086690;28;20047;-79
2022/08/06 10:56:07;;;;;;;0.20;0.20;;;19.60;96.50;;;;;;5077767;28;20064;-79
2022/08/06 10:58:34;;;;;;;0.20;0.20;;;19.60;96.20;;;;;;5073578;28;20093;-81
2022/08/06 11:01:06;;;;;;;0.20;0.20;;;19.70;96.20;;;;;;5069825;28;20041;-81
2022/08/06 11:03:55;;;;;;;0.13;0.13;;;19.80;95.80;;;;;;5071257;28;20174;-82
2022/08/06 11:06:36;;;;;;;0.10;0.10;;;19.80;95.10;;;;;;5078048;28;20044;-82
2022/08/06 11:09:38;;;;;;;0.20;0.20;;;19.90;94.80;;;;;;5073819;28;20132;-81
2022/08/06 11:12:26;;;;;;;0.20;0.20;;;19.90;95.10;;;;;;5064146;28;20102;-82
2022/08/06 11:14:52;;;;;;;0.20;0.20;;;20.10;95.00;;;;;;5072971;28;20080;-83
2022/08/06 11:17:18;;;;;;;0.10;0.10;;;20.30;94.70;;;;;;5080502;28;20479;-81
2022/08/06 11:19:49;;;;;;;0.10;0.10;;;20.40;94.20;;;;;;5066193;28;20051;-82
2022/08/06 11:22:33;;;;;;;0.20;0.20;;;20.50;93.80;;;;;;5070752;28;20080;-82
2022/08/06 11:25:00;;;;;;;0.20;0.20;;;20.60;93.40;;;;;;5067364;28;20057;-80
2022/08/06 11:27:56;;;;;;;0.17;0.17;;;20.70;93.40;;;;;;5071329;28;20059;-82
2022/08/06 11:30:55;;;;;;;0.10;0.10;;;20.80;93.20;;;;;;5065963;28;20056;-82
2022/08/06 11:33:44;;;;;;;0.20;0.20;;;20.80;93.90;;;;;;5065360;28;20045;-82
2022/08/06 11:36:23;;;;;;;0.20;0.20;;;20.90;93.70;;;;;;5080278;28;20041;-81
2022/08/06 11:38:52;;;;;;;0.20;0.20;;;21.00;93.10;;;;;;5061719;28;20071;-83
2022/08/06 11:41:25;;;;;;;0.20;0.20;;;21.10;93.30;;;;;;5069018;28;20123;-81
2022/08/06 11:43:56;;;;;;;0.20;0.20;;;21.10;93.10;;;;;;5071010;28;20396;-81
2022/08/06 11:46:29;;;;;;;0.20;0.20;;;21.20;92.50;;;;;;5066011;28;20515;-81
2022/08/06 11:49:03;;;;;;;0.20;0.20;;;21.20;92.10;;;;;;5067880;28;20072;-82
2022/08/06 11:51:40;;;;;;;0.20;0.20;;;21.20;91.90;;;;;;5060494;28;20056;-80
2022/08/06 11:54:15;;;;;;;0.20;0.20;;;21.20;92.00;;;;;;5068819;28;20059;-81
2022/08/06 11:57:01;;;;;;;0.20;0.20;;;21.30;91.60;;;;;;5072606;28;20052;-80
2022/08/06 11:59:34;;;;;;;0.20;0.20;;;21.30;91.40;;;;;;5069436;28;20059;-81
2022/08/06 12:02:02;;;;;;;0.30;0.30;;;21.30;90.90;;;;;;5068105;28;20052;-81
2022/08/06 12:04:37;;;;;;;0.20;0.20;;;21.40;91.40;;;;;;5066510;28;20052;-81
2022/08/06 12:07:16;;;;;;;0.20;0.20;;;21.50;91.40;;;;;;5063421;28;20044;-82
2022/08/06 12:09:43;;;;;;;0.20;0.20;;;21.50;90.80;;;;;;5065635;28;20064;-82
2022/08/06 12:12:24;;;;;;;0.20;0.20;;;21.50;90.80;;;;;;5078430;28;20051;-79
2022/08/06 12:14:51;;;;;;;0.30;0.30;;;21.50;90.90;;;;;;5076758;28;20044;-79
2022/08/06 12:17:21;;;;;;;0.20;0.20;;;21.60;90.50;;;;;;5075348;28;20037;-80
2022/08/06 12:19:49;;;;;;;0.20;0.20;;;21.50;90.50;;;;;;5058658;28;20029;-83
2022/08/06 12:22:17;;;;;;;0.20;0.20;;;21.50;89.70;;;;;;5067046;28;20052;-79
2022/08/06 12:24:44;;;;;;;0.20;0.20;;;21.50;89.30;;;;;;5062972;28;20092;-79
2022/08/06 12:27:13;;;;;;;0.10;0.10;;;21.60;88.00;;;;;;5059673;28;20131;-79
2022/08/06 12:29:40;;;;;;;0.20;0.20;;;21.60;87.20;;;;;;5060373;28;20045;-81
2022/08/06 12:32:29;;;;;;;0.20;0.20;;;21.70;88.10;;;;;;5076580;28;20044;-87
2022/08/06 12:34:59;;;;;;;0.15;0.15;;;21.70;88.70;;;;;;5076325;28;20046;-79
2022/08/06 12:37:43;;;;;;;0.20;0.20;;;21.90;88.40;;;;;;5055187;28;20048;-80
2022/08/06 12:40:24;;;;;;;0.20;0.20;;;22.00;87.90;;;;;;5052323;28;20180;-82
2022/08/06 12:42:59;;;;;;;0.20;0.20;;;22.00;87.30;;;;;;5071010;28;20071;-81
2022/08/06 12:45:26;;;;;;;0.20;0.20;;;22.10;86.90;;;;;;5069646;28;20040;-81
2022/08/06 12:48:10;;;;;;;0.20;0.20;;;22.20;86.10;;;;;;5072295;28;20400;-81
2022/08/06 12:50:41;;;;;;;0.40;0.40;;;22.20;85.70;;;;;;5062773;28;20036;-81
2022/08/06 12:53:13;;;;;;;0.20;0.20;;;22.30;85.70;;;;;;5067685;28;20048;-82
2022/08/06 12:55:50;;;;;;;0.20;0.20;;;22.30;85.30;;;;;;5070569;28;20044;-81
2022/08/06 12:58:18;;;;;;;0.20;0.20;;;22.40;85.40;;;;;;5065988;28;20409;-82
2022/08/06 13:00:56;;;;;;;0.20;0.20;;;22.50;85.70;;;;;;5056210;28;20061;-81
2022/08/06 13:03:23;;;;;;;0.20;0.20;;;22.60;84.30;;;;;;5057297;28;20049;-80
2022/08/06 13:05:50;;;;;;;0.20;0.20;;;22.70;83.90;;;;;;5070864;28;20036;-81
2022/08/06 13:08:18;;;;;;;0.20;0.20;;;22.70;83.40;;;;;;5069857;28;20399;-81
2022/08/06 13:10:53;;;;;;;0.20;0.20;;;22.80;83.70;;;;;;5069548;28;20102;-80